Time;durP1;ratioP1;P1;durP2;ratioP2;P2;SDS_P1;SDS_P2;PMS_P1;PMS_P2;Temp;Humidity;BMP_temperature;BMP_pressure;BME280_temperature;BME280_humidity;BME280_pressure;Samples;Min_cycle;Max_cycle;Signal;HPM_P1;HPM_P2
2023/09/13 01:07:40;;;;;;;9.30;8.50;;;21.00;99.90;;;;;;4747359;29;20901;-81
2023/09/13 01:10:43;;;;;;;8.93;8.13;;;20.80;99.90;;;;;;4960402;28;20478;-81
2023/09/13 01:16:55;;;;;;;9.10;8.30;;;20.60;99.90;;;;;;4963236;28;20470;-80
2023/09/13 01:20:19;;;;;;;8.33;7.50;;;20.60;99.90;;;;;;4925662;28;20451;-80
2023/09/13 01:23:27;;;;;;;10.10;8.20;;;20.20;99.90;;;;;;4964975;28;20450;-80
2023/09/13 01:26:55;;;;;;;8.23;7.60;;;20.20;99.90;;;;;;4904819;29;20463;-80
2023/09/13 01:30:06;;;;;;;8.53;7.83;;;20.20;99.90;;;;;;4908724;29;20453;-80
2023/09/13 01:32:54;;;;;;;9.23;8.20;;;20.30;99.90;;;;;;4963674;28;20458;-80
2023/09/13 01:35:44;;;;;;;7.10;6.50;;;20.40;99.90;;;;;;4963144;28;20470;-79
2023/09/13 01:38:42;;;;;;;7.40;6.80;;;20.30;99.90;;;;;;4963057;29;20604;-80
2023/09/13 01:41:33;;;;;;;7.97;7.27;;;20.20;99.90;;;;;;4962579;28;20450;-80
2023/09/13 01:44:22;;;;;;;7.60;7.00;;;20.30;99.90;;;;;;4961501;28;21070;-80
2023/09/13 02:08:12;;;;;;;10.27;9.27;;;20.00;99.90;;;;;;6266334;22;20409;-79
2023/09/13 02:11:07;;;;;;;9.37;8.63;;;20.10;99.90;;;;;;6038481;22;5384522;-82
2023/09/13 02:13:53;;;;;;;9.63;8.73;;;20.10;99.90;;;;;;6289356;22;20179;-79
2023/09/13 02:17:08;;;;;;;10.37;9.37;;;20.00;99.90;;;;;;6289153;22;20436;-79
2023/09/13 02:22:59;;;;;;;9.07;8.27;;;19.90;99.90;;;;;;6294591;22;20414;-79
2023/09/13 02:32:57;;;;;;;9.10;8.40;;;19.90;99.90;;;;;;6118956;23;20469;-79
2023/09/13 02:59:57;;;;;;;8.60;7.80;;;19.60;99.90;;;;;;6271039;22;20388;-80
2023/09/13 03:55:37;;;;;;;7.10;6.60;;;19.30;99.90;;;;;;6024165;23;20424;-79
2023/09/13 03:58:11;;;;;;;7.80;7.10;;;19.30;99.90;;;;;;6166846;23;20535;-79
2023/09/13 04:00:58;;;;;;;8.40;7.70;;;19.30;99.90;;;;;;6167419;23;20396;-79
2023/09/13 04:03:42;;;;;;;7.80;7.20;;;19.30;99.90;;;;;;6168531;23;20435;-79
2023/09/13 04:10:29;;;;;;;8.20;7.40;;;19.40;99.90;;;;;;6164946;23;20435;-79
2023/09/13 04:13:25;;;;;;;8.33;7.57;;;19.30;99.90;;;;;;6164181;23;20559;-78
2023/09/13 04:16:24;;;;;;;7.83;7.13;;;19.30;99.90;;;;;;6155935;23;20418;-80
2023/09/13 04:21:49;;;;;;;8.63;7.80;;;19.20;99.90;;;;;;6142041;23;20802;-80
2023/09/13 04:30:41;;;;;;;9.57;8.77;;;19.30;99.90;;;;;;6167172;23;20419;-80
2023/09/13 04:33:42;;;;;;;;;;;;;;;;;;;;;
2023/09/13 04:43:00;;;;;;;8.27;7.60;;;19.20;99.90;;;;;;6034127;23;20396;-79
2023/09/13 04:45:44;;;;;;;9.60;8.40;;;19.20;99.90;;;;;;6096397;23;20428;-79
2023/09/13 04:48:28;;;;;;;10.23;9.43;;;19.20;99.90;;;;;;6161031;23;20465;-80
2023/09/13 04:51:21;;;;;;;9.30;8.40;;;19.20;99.90;;;;;;6164102;23;20412;-81
2023/09/13 04:54:14;;;;;;;8.07;7.40;;;19.30;99.90;;;;;;6160497;23;20503;-80
2023/09/13 04:57:14;;;;;;;8.77;8.07;;;19.20;99.90;;;;;;6158153;23;20965;-78
2023/09/13 05:00:14;;;;;;;6.90;6.40;;;19.20;99.90;;;;;;6159280;23;20440;-79
2023/09/13 05:03:18;;;;;;;7.90;7.30;;;19.20;99.90;;;;;;6100119;23;20412;-80
2023/09/13 05:06:50;;;;;;;7.77;7.17;;;19.20;99.90;;;;;;6155003;23;20462;-80
2023/09/13 05:09:40;;;;;;;7.10;6.60;;;19.20;99.90;;;;;;6161307;23;20899;-80
2023/09/13 05:12:17;;;;;;;7.17;6.57;;;19.20;99.90;;;;;;6158692;23;20439;-80
2023/09/13 05:15:07;;;;;;;7.87;6.93;;;19.20;99.90;;;;;;6158898;23;20514;-80
2023/09/13 05:17:49;;;;;;;8.20;7.40;;;19.30;99.90;;;;;;6160379;23;20422;-80
2023/09/13 05:20:20;;;;;;;7.10;6.60;;;19.40;99.90;;;;;;6159493;23;20426;-81
2023/09/13 05:23:00;;;;;;;7.47;6.93;;;19.40;99.90;;;;;;6157145;23;20412;-81
2023/09/13 05:25:56;;;;;;;7.10;6.60;;;19.70;99.90;;;;;;6158765;23;20451;-81
2023/09/13 05:28:50;;;;;;;7.73;7.13;;;19.40;99.90;;;;;;6159363;23;20472;-80
2023/09/13 05:31:31;;;;;;;6.70;6.10;;;19.50;99.90;;;;;;6162655;23;20420;-80
2023/09/13 05:34:09;;;;;;;7.00;6.30;;;19.40;99.90;;;;;;6166332;23;20467;-81
2023/09/13 05:36:41;;;;;;;33.07;29.50;;;19.40;99.90;;;;;;6166404;23;20407;-82
2023/09/13 05:39:15;;;;;;;7.03;6.47;;;19.40;99.90;;;;;;6163516;23;20447;-82
2023/09/13 05:42:12;;;;;;;6.17;5.67;;;19.40;99.90;;;;;;6162531;23;20456;-81
2023/09/13 05:45:00;;;;;;;6.77;6.27;;;19.40;99.90;;;;;;6042583;23;20447;-80
2023/09/13 05:47:38;;;;;;;5.87;5.47;;;19.40;99.90;;;;;;6160545;23;20492;-82
2023/09/13 05:50:20;;;;;;;6.43;5.93;;;19.40;99.90;;;;;;6164797;23;20431;-81
2023/09/13 05:52:50;;;;;;;7.43;6.83;;;19.40;99.90;;;;;;6164964;23;20440;-80
2023/09/13 05:55:25;;;;;;;6.93;6.33;;;19.30;99.90;;;;;;6172739;23;20499;-80
2023/09/13 05:58:04;;;;;;;6.20;5.67;;;19.40;99.90;;;;;;6174630;23;20439;-79
2023/09/13 06:00:56;;;;;;;6.60;6.10;;;19.40;99.90;;;;;;6171575;23;20742;-79
2023/09/13 06:03:30;;;;;;;5.77;5.27;;;19.50;99.90;;;;;;6171791;23;20431;-81
2023/09/13 06:06:13;;;;;;;6.73;6.20;;;19.50;99.90;;;;;;6171993;23;20446;-78
2023/09/13 06:12:09;;;;;;;7.07;6.47;;;19.40;99.90;;;;;;6155084;23;20739;-81
2023/09/13 06:15:08;;;;;;;6.60;6.10;;;19.40;99.90;;;;;;6161820;23;20435;-82
2023/09/13 06:18:08;;;;;;;6.67;6.13;;;19.30;99.90;;;;;;6162045;23;20420;-81
2023/09/13 06:21:00;;;;;;;6.23;5.73;;;19.30;99.90;;;;;;6163495;23;20447;-79
2023/09/13 06:26:50;;;;;;;5.93;5.43;;;19.20;99.90;;;;;;6154128;23;20910;-80
2023/09/13 06:29:45;;;;;;;5.80;5.40;;;19.30;99.90;;;;;;6163586;23;20415;-80
2023/09/13 06:32:14;;;;;;;7.07;6.40;;;19.30;99.90;;;;;;6157032;23;20418;-79
2023/09/13 06:35:06;;;;;;;6.60;6.00;;;19.60;99.90;;;;;;6163139;23;20441;-81
2023/09/13 06:37:38;;;;;;;6.10;5.70;;;19.30;99.90;;;;;;6165061;23;20416;-80
2023/09/13 06:40:09;;;;;;;6.80;6.30;;;19.40;99.90;;;;;;6165449;23;20368;-80
2023/09/13 06:42:51;;;;;;;6.87;6.30;;;19.40;99.90;;;;;;6165561;23;20757;-80
2023/09/13 06:45:27;;;;;;;5.97;5.57;;;19.40;99.90;;;;;;6168137;23;20516;-80
2023/09/13 06:48:04;;;;;;;6.80;6.20;;;19.40;99.90;;;;;;6167757;23;20400;-80
2023/09/13 06:50:40;;;;;;;6.50;6.03;;;19.40;99.90;;;;;;6167253;23;20419;-79
2023/09/13 06:53:11;;;;;;;5.40;5.00;;;19.40;99.90;;;;;;6167407;23;20420;-80
2023/09/13 06:55:47;;;;;;;6.60;6.10;;;19.50;99.90;;;;;;6165380;23;20450;-80
2023/09/13 06:58:15;;;;;;;6.30;5.70;;;19.50;99.90;;;;;;6166796;23;20519;-80
2023/09/13 07:00:50;;;;;;;6.50;5.90;;;19.70;99.90;;;;;;6169512;23;20903;-80
2023/09/13 07:03:19;;;;;;;5.50;5.10;;;19.70;99.90;;;;;;6172913;23;20467;-80
2023/09/13 07:05:51;;;;;;;5.83;5.53;;;19.70;99.90;;;;;;6170144;23;20440;-79
2023/09/13 07:08:52;;;;;;;5.73;5.23;;;19.90;99.90;;;;;;6168830;23;20423;-80
2023/09/13 07:11:32;;;;;;;6.60;5.10;;;20.10;99.90;;;;;;6153946;23;20494;-81
2023/09/13 07:14:04;;;;;;;5.90;5.40;;;20.00;99.90;;;;;;6169188;23;20474;-80
2023/09/13 07:16:45;;;;;;;6.60;5.67;;;20.00;99.90;;;;;;6168121;23;20412;-81
2023/09/13 07:19:16;;;;;;;5.40;4.90;;;20.00;99.90;;;;;;6168188;23;20488;-79
2023/09/13 07:21:49;;;;;;;5.90;5.40;;;19.90;99.90;;;;;;6167000;23;20419;-80
2023/09/13 07:24:20;;;;;;;5.73;5.33;;;20.00;99.90;;;;;;6167171;23;20424;-80
2023/09/13 07:26:55;;;;;;;6.30;5.80;;;20.10;99.90;;;;;;6137482;23;20409;-79
2023/09/13 07:29:40;;;;;;;5.90;5.40;;;20.10;99.90;;;;;;6143412;23;20998;-78
2023/09/13 07:32:44;;;;;;;6.50;6.00;;;20.10;99.90;;;;;;6150879;23;20401;-81
2023/09/13 07:35:15;;;;;;;6.23;5.73;;;20.00;99.90;;;;;;6143863;23;20435;-81
2023/09/13 07:37:50;;;;;;;5.60;5.20;;;20.00;99.90;;;;;;6146097;23;20412;-82
2023/09/13 07:43:48;;;;;;;5.73;5.23;;;20.10;99.90;;;;;;6135001;23;20450;-81
2023/09/13 07:46:30;;;;;;;5.80;5.40;;;20.10;99.90;;;;;;6135465;23;20428;-81
2023/09/13 07:49:12;;;;;;;5.40;5.00;;;20.10;99.90;;;;;;6134756;23;20478;-80
2023/09/13 07:54:40;;;;;;;7.17;5.50;;;20.00;99.90;;;;;;6132991;23;20436;-80
2023/09/13 07:57:16;;;;;;;5.50;5.10;;;20.10;99.90;;;;;;6133928;23;21022;-81
2023/09/13 08:00:09;;;;;;;5.53;5.03;;;20.10;99.90;;;;;;6135085;23;20472;-80
2023/09/13 08:03:10;;;;;;;6.13;5.60;;;20.20;99.90;;;;;;6137347;23;20432;-81
2023/09/13 08:05:42;;;;;;;5.20;4.70;;;20.20;99.90;;;;;;6135740;23;20442;-79
2023/09/13 08:08:22;;;;;;;5.53;4.90;;;20.30;99.90;;;;;;6136481;23;20417;-79
2023/09/13 08:10:57;;;;;;;6.77;5.47;;;20.40;99.90;;;;;;6137411;23;20413;-80
2023/09/13 08:13:42;;;;;;;5.17;4.87;;;20.40;99.90;;;;;;6138929;23;20536;-82
2023/09/13 08:16:15;;;;;;;5.30;4.90;;;20.30;99.90;;;;;;6137107;23;20485;-80
2023/09/13 08:18:55;;;;;;;6.47;5.87;;;20.50;99.90;;;;;;6111565;23;20409;-81
2023/09/13 08:21:37;;;;;;;5.63;5.03;;;20.50;99.90;;;;;;6134601;23;20483;-80
2023/09/13 08:24:32;;;;;;;6.03;5.53;;;20.40;99.90;;;;;;6136468;23;20432;-79
2023/09/13 08:27:31;;;;;;;5.47;4.97;;;20.40;99.90;;;;;;6135182;23;20409;-80
2023/09/13 08:30:11;;;;;;;6.30;5.57;;;20.50;99.90;;;;;;6134580;23;20421;-80
2023/09/13 08:32:52;;;;;;;6.40;5.50;;;20.60;99.90;;;;;;6130626;23;20433;-79
2023/09/13 08:39:37;;;;;;;;;;;;;;;;;;;;;
2023/09/13 08:45:32;;;;;;;5.23;4.93;;;20.40;99.90;;;;;;5990793;23;20424;-81
2023/09/13 08:51:08;;;;;;;5.70;5.20;;;20.50;99.90;;;;;;6131949;23;20466;-82
2023/09/13 08:54:06;;;;;;;5.50;5.10;;;20.50;99.90;;;;;;6133150;23;20472;-80
2023/09/13 08:56:43;;;;;;;7.43;5.17;;;20.40;99.90;;;;;;6129915;23;20444;-81
2023/09/13 08:59:34;;;;;;;5.20;4.73;;;20.50;99.90;;;;;;6129331;23;20607;-81
2023/09/13 09:02:36;;;;;;;5.00;4.60;;;20.50;99.90;;;;;;6132087;23;20757;-80
2023/09/13 09:05:17;;;;;;;5.23;4.83;;;20.20;99.90;;;;;;6131738;23;20458;-79
2023/09/13 09:08:09;;;;;;;5.00;4.60;;;20.30;99.90;;;;;;6130456;23;20488;-79
2023/09/13 09:10:57;;;;;;;5.43;4.50;;;20.20;99.90;;;;;;6130425;23;20440;-80
2023/09/13 09:13:52;;;;;;;4.90;4.60;;;20.20;99.90;;;;;;6132558;23;20452;-80
2023/09/13 09:16:48;;;;;;;4.97;4.67;;;20.30;99.90;;;;;;6130382;23;20417;-80
2023/09/13 09:19:26;;;;;;;5.57;5.17;;;20.10;99.90;;;;;;6128706;23;20413;-80
2023/09/13 09:22:09;;;;;;;5.60;5.10;;;20.10;99.90;;;;;;6127660;23;20421;-79
2023/09/13 09:25:02;;;;;;;5.47;5.07;;;20.10;99.90;;;;;;6128833;23;20428;-80
2023/09/13 09:27:40;;;;;;;5.07;4.67;;;20.10;99.90;;;;;;6129789;23;20435;-81
2023/09/13 09:33:09;;;;;;;6.00;5.50;;;20.40;99.90;;;;;;6128088;23;20398;-79
2023/09/13 09:36:15;;;;;;;5.23;4.83;;;20.50;99.90;;;;;;6127889;23;20438;-81
2023/09/13 09:39:34;;;;;;;;;;;;;;;;;;;;;
2023/09/13 09:42:10;;;;;;;12.80;4.80;;;20.30;99.90;;;;;;6129255;23;20594;-81
2023/09/13 09:44:48;;;;;;;5.10;4.80;;;20.30;99.90;;;;;;6127224;23;20435;-81
2023/09/13 09:47:20;;;;;;;5.30;4.90;;;20.30;99.90;;;;;;6128690;23;20389;-80
2023/09/13 09:49:55;;;;;;;5.60;5.20;;;20.30;99.90;;;;;;6127559;23;20423;-81
2023/09/13 09:52:29;;;;;;;5.33;4.93;;;20.40;99.90;;;;;;6128577;23;20464;-80
2023/09/13 09:55:08;;;;;;;4.67;4.20;;;20.70;99.90;;;;;;6128367;23;20511;-81
2023/09/13 09:57:48;;;;;;;5.03;4.53;;;20.80;99.90;;;;;;6129665;23;20794;-80
2023/09/13 10:00:34;;;;;;;6.37;5.10;;;20.90;99.90;;;;;;6128559;23;20423;-81
2023/09/13 10:03:15;;;;;;;5.57;4.97;;;21.00;99.90;;;;;;6127984;23;20436;-81
2023/09/13 10:06:03;;;;;;;5.40;4.87;;;20.90;99.90;;;;;;6132411;23;20449;-79
2023/09/13 10:08:51;;;;;;;4.97;4.60;;;20.80;99.90;;;;;;6135849;23;20433;-79
2023/09/13 10:11:30;;;;;;;5.30;4.90;;;20.80;99.90;;;;;;6137272;23;20417;-79
2023/09/13 10:14:02;;;;;;;5.20;4.90;;;20.70;99.90;;;;;;6137323;23;20500;-82
2023/09/13 10:16:49;;;;;;;5.63;5.23;;;20.70;99.90;;;;;;6137707;23;20423;-83
2023/09/13 10:19:27;;;;;;;4.57;4.27;;;20.60;99.90;;;;;;6138208;23;20445;-80
2023/09/13 10:21:59;;;;;;;4.90;4.50;;;20.60;99.90;;;;;;6140031;23;20423;-79
2023/09/13 10:24:46;;;;;;;5.07;4.67;;;20.70;99.90;;;;;;6139430;23;20617;-80
2023/09/13 10:27:24;;;;;;;5.47;5.07;;;20.80;99.90;;;;;;6141707;23;20416;-80
2023/09/13 10:30:08;;;;;;;8.17;7.57;;;20.90;99.90;;;;;;6144192;23;20428;-81
2023/09/13 10:32:58;;;;;;;5.30;5.00;;;20.80;99.90;;;;;;6142783;23;20792;-81
2023/09/13 10:35:54;;;;;;;5.07;4.57;;;21.00;99.90;;;;;;6140910;23;20440;-80
2023/09/13 10:38:49;;;;;;;7.30;5.30;;;21.00;99.90;;;;;;6139136;23;20815;-79
2023/09/13 10:41:41;;;;;;;5.03;4.53;;;21.00;99.90;;;;;;6134840;23;20401;-80
2023/09/13 10:44:27;;;;;;;6.50;6.00;;;20.80;99.90;;;;;;6137639;23;20981;-82
2023/09/13 10:47:19;;;;;;;5.40;4.93;;;20.90;99.90;;;;;;6137865;23;20439;-81
2023/09/13 10:49:58;;;;;;;4.83;4.43;;;20.70;99.90;;;;;;6138119;23;20436;-80
2023/09/13 10:52:25;;;;;;;4.73;4.40;;;21.20;99.90;;;;;;6135235;23;20408;-80
2023/09/13 10:55:18;;;;;;;4.30;4.00;;;21.20;99.90;;;;;;6135466;23;20970;-81
2023/09/13 11:00:50;;;;;;;4.83;4.53;;;21.10;99.90;;;;;;6139533;23;20441;-80
2023/09/13 11:03:23;;;;;;;4.53;4.23;;;21.10;99.90;;;;;;6140017;23;20416;-83
2023/09/13 11:05:58;;;;;;;4.97;4.60;;;21.20;99.90;;;;;;6133981;23;20476;-81
2023/09/13 11:08:34;;;;;;;4.50;4.20;;;21.30;99.90;;;;;;6133147;23;20404;-82
2023/09/13 11:11:18;;;;;;;5.33;4.93;;;21.50;99.90;;;;;;6133636;23;20385;-81
2023/09/13 11:13:57;;;;;;;4.30;4.00;;;21.70;99.90;;;;;;6130928;23;20429;-82
2023/09/13 11:16:42;;;;;;;5.43;4.50;;;21.90;99.90;;;;;;6131081;23;20409;-81
2023/09/13 11:19:29;;;;;;;5.07;4.30;;;22.00;99.90;;;;;;6131332;23;20487;-81
2023/09/13 11:22:11;;;;;;;5.20;4.73;;;22.10;99.90;;;;;;6131191;23;20412;-79
2023/09/13 11:24:53;;;;;;;5.40;5.00;;;22.20;99.90;;;;;;6129223;23;20456;-81
2023/09/13 11:27:36;;;;;;;4.80;4.50;;;22.20;99.90;;;;;;6133841;23;20413;-78
2023/09/13 11:30:12;;;;;;;4.70;4.27;;;22.30;99.90;;;;;;6141944;23;20408;-80
2023/09/13 11:32:53;;;;;;;4.27;3.97;;;22.50;99.90;;;;;;6141029;23;20412;-80
2023/09/13 11:35:34;;;;;;;5.40;3.90;;;22.50;99.90;;;;;;6140531;23;20440;-80
2023/09/13 11:38:12;;;;;;;4.90;4.50;;;22.60;99.90;;;;;;6139588;23;20417;-81
2023/09/13 11:40:51;;;;;;;5.13;4.50;;;22.50;99.90;;;;;;6140064;23;20480;-80
2023/09/13 11:43:31;;;;;;;5.03;4.63;;;22.80;99.90;;;;;;6139714;23;20412;-79
2023/09/13 11:46:14;;;;;;;4.60;4.30;;;22.80;99.90;;;;;;6140357;23;20450;-80
2023/09/13 11:49:00;;;;;;;7.20;5.00;;;22.90;99.90;;;;;;6137507;23;20401;-82
2023/09/13 11:51:53;;;;;;;5.00;4.60;;;22.80;99.90;;;;;;6135594;23;20413;-79
2023/09/13 11:55:07;;;;;;;4.43;4.13;;;22.60;99.90;;;;;;6134085;23;20536;-79
2023/09/13 12:01:13;;;;;;;4.40;4.10;;;23.10;99.90;;;;;;6016189;23;20405;-83
2023/09/13 12:04:03;;;;;;;4.77;4.37;;;23.00;99.90;;;;;;6018874;23;20445;-78
2023/09/13 12:06:46;;;;;;;5.73;5.23;;;23.10;99.90;;;;;;6022252;23;20416;-79
2023/09/13 12:09:27;;;;;;;4.40;4.10;;;23.10;99.90;;;;;;6098863;23;20413;-79
2023/09/13 12:12:05;;;;;;;4.80;4.27;;;22.90;99.90;;;;;;6138488;23;20408;-78
2023/09/13 12:14:52;;;;;;;4.60;4.17;;;23.10;99.90;;;;;;6137862;23;20495;-78
2023/09/13 12:17:49;;;;;;;4.83;4.43;;;23.00;99.90;;;;;;6135590;23;20930;-78
2023/09/13 12:20:22;;;;;;;5.03;4.73;;;23.00;99.90;;;;;;6135395;23;20405;-78
2023/09/13 12:22:54;;;;;;;4.70;4.10;;;23.00;99.90;;;;;;6140135;23;20756;-82
2023/09/13 12:25:25;;;;;;;4.20;3.90;;;23.80;99.90;;;;;;6140282;23;20443;-79
2023/09/13 12:27:53;;;;;;;4.77;4.47;;;23.40;99.90;;;;;;6139904;23;20935;-78
2023/09/13 12:30:22;;;;;;;4.23;3.83;;;23.50;99.90;;;;;;6138794;23;20397;-77
2023/09/13 12:33:02;;;;;;;4.40;4.10;;;24.20;99.90;;;;;;6141087;23;20433;-78
2023/09/13 12:35:47;;;;;;;4.20;3.90;;;24.20;99.90;;;;;;6139907;23;20444;-79
2023/09/13 12:38:45;;;;;;;4.50;4.10;;;24.40;99.90;;;;;;6142497;23;20388;-80
2023/09/13 12:41:30;;;;;;;4.20;3.90;;;24.80;99.90;;;;;;6144341;23;20493;-80
2023/09/13 12:44:12;;;;;;;4.50;4.10;;;25.20;99.90;;;;;;6143939;23;20432;-81
2023/09/13 12:46:48;;;;;;;4.20;3.90;;;25.30;99.90;;;;;;6135383;23;20423;-80
2023/09/13 12:49:35;;;;;;;3.97;3.60;;;25.40;99.90;;;;;;6137827;23;20423;-80
2023/09/13 12:52:12;;;;;;;4.07;3.70;;;25.20;99.90;;;;;;6133610;23;20519;-81
2023/09/13 12:54:49;;;;;;;4.70;4.40;;;25.00;99.90;;;;;;6136075;23;20432;-79
2023/09/13 12:57:31;;;;;;;3.50;3.20;;;25.20;99.90;;;;;;6135183;23;20464;-81
2023/09/13 13:00:38;;;;;;;3.30;3.10;;;25.40;99.90;;;;;;6139890;23;20420;-80
2023/09/13 13:03:14;;;;;;;4.03;3.73;;;25.60;99.90;;;;;;6138975;23;20433;-80
2023/09/13 13:05:47;;;;;;;3.83;3.63;;;25.40;99.90;;;;;;6145575;23;20460;-81
2023/09/13 13:08:41;;;;;;;3.50;3.30;;;25.60;99.90;;;;;;6146286;23;20420;-79
2023/09/13 13:11:13;;;;;;;4.40;3.70;;;25.30;99.90;;;;;;6147741;23;20394;-81
2023/09/13 13:13:48;;;;;;;3.73;3.43;;;25.20;99.90;;;;;;6146736;23;20419;-80
2023/09/13 13:22:45;;;;;;;4.17;3.77;;;25.50;99.90;;;;;;6129205;23;21115;-80
2023/09/13 13:25:23;;;;;;;5.90;4.53;;;25.60;99.90;;;;;;6079167;23;20443;-80
2023/09/13 13:27:56;;;;;;;3.97;3.77;;;25.40;99.90;;;;;;6131550;23;20404;-83
2023/09/13 13:30:24;;;;;;;4.47;3.67;;;25.10;99.90;;;;;;6132233;23;20409;-81
2023/09/13 13:33:03;;;;;;;3.87;3.57;;;24.50;99.90;;;;;;6132140;23;20436;-82
2023/09/13 13:35:37;;;;;;;4.13;3.83;;;24.90;99.90;;;;;;6131679;23;20448;-82
2023/09/13 13:38:21;;;;;;;4.17;3.87;;;25.00;99.90;;;;;;6130402;23;20439;-79
2023/09/13 13:41:10;;;;;;;3.90;3.60;;;25.00;99.90;;;;;;6131459;23;20436;-82
2023/09/13 13:43:52;;;;;;;4.30;4.00;;;24.90;99.90;;;;;;6129016;23;20433;-80
2023/09/13 13:46:26;;;;;;;4.00;3.70;;;24.80;99.90;;;;;;6131697;23;20413;-82
2023/09/13 13:49:03;;;;;;;3.77;3.47;;;24.90;99.90;;;;;;6131835;23;20417;-82
2023/09/13 13:51:44;;;;;;;3.90;3.60;;;24.70;99.90;;;;;;6137960;23;20408;-81
2023/09/13 13:54:32;;;;;;;3.87;3.67;;;25.00;99.90;;;;;;6113134;23;20431;-82
2023/09/13 13:57:11;;;;;;;4.50;4.20;;;25.20;99.90;;;;;;6136506;23;20742;-82
2023/09/13 13:59:48;;;;;;;4.10;3.90;;;25.00;99.90;;;;;;6137523;23;20424;-83
2023/09/13 14:02:36;;;;;;;4.20;3.90;;;24.60;99.90;;;;;;6136909;23;20468;-83
2023/09/13 14:05:08;;;;;;;4.70;4.30;;;24.70;99.90;;;;;;6136861;23;20443;-80
2023/09/13 14:07:42;;;;;;;4.23;3.93;;;24.10;99.90;;;;;;6135794;23;20432;-83
2023/09/13 14:10:22;;;;;;;4.87;4.50;;;23.80;99.90;;;;;;6136794;23;20459;-79
2023/09/13 14:12:56;;;;;;;4.23;3.93;;;24.00;99.90;;;;;;6136687;23;20431;-81
2023/09/13 14:15:34;;;;;;;4.60;4.27;;;24.00;99.90;;;;;;6134498;23;20449;-82
2023/09/13 14:18:19;;;;;;;4.63;4.23;;;23.60;99.90;;;;;;6136665;23;20408;-83
2023/09/13 14:20:53;;;;;;;5.37;4.93;;;23.80;99.90;;;;;;6135530;23;20559;-81
2023/09/13 14:23:39;;;;;;;5.87;4.47;;;23.90;99.90;;;;;;6134317;23;20460;-82
2023/09/13 14:26:09;;;;;;;4.77;4.47;;;23.90;99.90;;;;;;6138169;23;20484;-82
2023/09/13 14:28:48;;;;;;;4.50;4.20;;;23.80;99.90;;;;;;6141484;23;20425;-80
2023/09/13 14:31:24;;;;;;;4.50;4.20;;;23.90;99.90;;;;;;6140869;23;20401;-81
2023/09/13 14:33:54;;;;;;;3.77;3.57;;;23.70;99.90;;;;;;6141031;23;20524;-80
2023/09/13 14:36:29;;;;;;;5.93;5.43;;;23.40;99.90;;;;;;6142026;23;20437;-79
2023/09/13 14:39:20;;;;;;;4.60;4.30;;;23.20;99.90;;;;;;6143299;23;20479;-81
2023/09/13 14:41:57;;;;;;;5.47;4.97;;;23.50;99.90;;;;;;6143928;23;20415;-81
2023/09/13 14:44:37;;;;;;;5.20;4.90;;;23.70;99.90;;;;;;6143311;23;20458;-80
2023/09/13 14:47:08;;;;;;;5.00;4.70;;;23.80;99.90;;;;;;6144483;23;20438;-81
2023/09/13 14:49:41;;;;;;;4.70;4.40;;;23.90;99.90;;;;;;6144230;23;20897;-80
2023/09/13 14:52:24;;;;;;;5.20;4.80;;;23.80;99.90;;;;;;6143451;23;20421;-82
2023/09/13 14:55:03;;;;;;;5.30;4.90;;;23.90;99.90;;;;;;6143403;23;20413;-80
2023/09/13 14:57:43;;;;;;;5.40;4.90;;;23.80;99.90;;;;;;6145481;23;20463;-82
2023/09/13 15:00:30;;;;;;;5.47;4.77;;;23.80;99.90;;;;;;6144919;23;20436;-81
2023/09/13 15:03:21;;;;;;;5.30;4.90;;;23.70;99.90;;;;;;6147922;23;20420;-82
2023/09/13 15:05:52;;;;;;;5.60;5.20;;;23.30;99.90;;;;;;6146578;23;20425;-80
2023/09/13 15:08:31;;;;;;;5.40;5.00;;;23.20;99.90;;;;;;6146516;23;20416;-80
2023/09/13 15:11:06;;;;;;;5.50;5.00;;;23.40;99.90;;;;;;6143801;23;20412;-80
2023/09/13 15:13:37;;;;;;;6.20;4.63;;;23.70;99.90;;;;;;6144527;23;20408;-79
2023/09/13 15:16:13;;;;;;;5.27;4.97;;;24.00;99.90;;;;;;6146944;23;20584;-79
2023/09/13 15:18:49;;;;;;;5.40;5.00;;;23.90;99.90;;;;;;6146953;23;20381;-79
2023/09/13 15:21:32;;;;;;;5.93;5.37;;;23.70;99.90;;;;;;6147025;23;20405;-82
2023/09/13 15:24:11;;;;;;;5.37;4.87;;;23.60;99.90;;;;;;6146805;23;20444;-80
2023/09/13 15:26:51;;;;;;;5.73;5.23;;;23.70;99.90;;;;;;6145686;23;20408;-82
2023/09/13 15:29:24;;;;;;;5.37;4.87;;;23.80;99.90;;;;;;6146194;23;20432;-81
2023/09/13 15:32:00;;;;;;;4.73;4.33;;;23.90;99.90;;;;;;6146975;23;20412;-82
2023/09/13 15:34:30;;;;;;;4.93;4.53;;;24.00;99.90;;;;;;6146238;23;20440;-81
2023/09/13 15:37:03;;;;;;;4.83;4.37;;;23.90;99.90;;;;;;6140970;23;20437;-80
2023/09/13 15:39:39;;;;;;;5.03;4.43;;;24.00;99.90;;;;;;6138637;23;20492;-83
2023/09/13 15:42:12;;;;;;;5.70;5.20;;;23.80;99.90;;;;;;6143498;23;20467;-81
2023/09/13 15:44:56;;;;;;;5.23;4.90;;;23.40;99.90;;;;;;6142645;23;20447;-77
2023/09/13 15:47:31;;;;;;;5.50;5.10;;;23.20;99.90;;;;;;6139462;23;20421;-82
2023/09/13 15:50:02;;;;;;;5.63;4.60;;;23.10;99.90;;;;;;6134250;23;20440;-79
2023/09/13 15:52:30;;;;;;;5.30;4.80;;;23.50;99.90;;;;;;6131153;23;20727;-78
2023/09/13 15:55:03;;;;;;;4.80;4.50;;;23.00;99.90;;;;;;6133543;23;20418;-78
2023/09/13 15:57:38;;;;;;;5.60;5.20;;;23.20;99.90;;;;;;6137557;23;20428;-79
2023/09/13 16:00:09;;;;;;;5.07;4.67;;;23.40;99.90;;;;;;6140194;23;20413;-80
2023/09/13 16:02:47;;;;;;;4.77;4.37;;;23.60;99.90;;;;;;6137434;23;20799;-80
2023/09/13 16:05:21;;;;;;;5.30;5.00;;;23.70;99.90;;;;;;6144347;23;20446;-79
2023/09/13 16:07:51;;;;;;;5.30;4.90;;;23.90;99.90;;;;;;6144509;23;20427;-80
2023/09/13 16:10:24;;;;;;;4.77;4.37;;;24.20;99.90;;;;;;6144277;23;20416;-81
2023/09/13 16:12:53;;;;;;;4.50;4.20;;;23.90;99.90;;;;;;6136060;23;20377;-79
2023/09/13 16:15:34;;;;;;;5.60;5.10;;;23.80;99.90;;;;;;6131346;23;20449;-79
2023/09/13 16:18:11;;;;;;;5.43;4.90;;;23.60;99.90;;;;;;6131073;23;20440;-80
2023/09/13 16:20:40;;;;;;;12.10;5.70;;;23.80;99.90;;;;;;6132112;23;20377;-80
2023/09/13 16:23:15;;;;;;;5.10;4.70;;;23.90;99.90;;;;;;6130801;23;20413;-80
2023/09/13 16:26:05;;;;;;;5.37;5.07;;;23.90;99.90;;;;;;6130963;23;20750;-82
2023/09/13 16:28:43;;;;;;;5.73;5.33;;;24.00;99.90;;;;;;6132465;23;20393;-81
2023/09/13 16:31:40;;;;;;;5.20;4.80;;;23.50;99.90;;;;;;6137235;23;20473;-80
2023/09/13 16:34:16;;;;;;;5.03;4.63;;;23.60;99.90;;;;;;6144502;23;20480;-79
2023/09/13 16:36:57;;;;;;;5.10;4.70;;;23.70;99.90;;;;;;6146118;23;20432;-80
2023/09/13 16:39:30;;;;;;;5.27;4.97;;;23.60;99.90;;;;;;6142965;23;20436;-82
2023/09/13 16:42:04;;;;;;;5.23;4.90;;;23.90;99.90;;;;;;6141025;23;20416;-79
2023/09/13 16:44:51;;;;;;;5.30;4.87;;;23.50;99.90;;;;;;6141708;23;20437;-78
2023/09/13 16:47:36;;;;;;;5.50;5.10;;;23.40;99.90;;;;;;6142420;23;20449;-80
2023/09/13 16:50:21;;;;;;;5.33;4.93;;;23.60;99.90;;;;;;6138534;23;20416;-79
2023/09/13 16:53:20;;;;;;;4.83;4.43;;;23.40;99.90;;;;;;6144239;23;20397;-82
2023/09/13 16:56:03;;;;;;;5.57;5.03;;;23.10;99.90;;;;;;6141014;23;20449;-81
2023/09/13 16:58:47;;;;;;;5.70;5.30;;;23.10;99.90;;;;;;6140820;23;20524;-79
2023/09/13 17:01:16;;;;;;;5.80;5.40;;;23.30;99.90;;;;;;6138044;23;20933;-82
2023/09/13 17:04:02;;;;;;;6.00;5.47;;;23.40;99.90;;;;;;6135288;23;20421;-81
2023/09/13 17:06:43;;;;;;;5.67;5.27;;;23.20;99.90;;;;;;6133973;23;20417;-80
2023/09/13 17:09:15;;;;;;;5.73;5.33;;;22.80;99.90;;;;;;6134793;23;20472;-82
2023/09/13 17:11:56;;;;;;;5.70;5.30;;;23.00;99.90;;;;;;6133230;23;20428;-81
2023/09/13 17:14:43;;;;;;;6.17;5.47;;;22.80;99.90;;;;;;6132460;23;20908;-81
2023/09/13 17:17:52;;;;;;;5.93;5.40;;;22.70;99.90;;;;;;6134740;23;20452;-78
2023/09/13 17:20:33;;;;;;;6.43;5.77;;;22.80;99.90;;;;;;6132032;23;20761;-81
2023/09/13 17:26:19;;;;;;;6.07;5.67;;;22.80;99.90;;;;;;6125442;23;20759;-81
2023/09/13 17:28:55;;;;;;;6.00;5.50;;;22.90;99.90;;;;;;6128822;23;20928;-81
2023/09/13 17:31:29;;;;;;;6.03;5.63;;;22.70;99.90;;;;;;6128711;23;20447;-80
2023/09/13 17:34:20;;;;;;;5.80;5.30;;;22.80;99.90;;;;;;6127473;23;20781;-82
2023/09/13 17:36:54;;;;;;;5.67;5.17;;;22.70;99.90;;;;;;6129319;23;20445;-79
2023/09/13 17:39:55;;;;;;;6.03;5.63;;;22.70;99.90;;;;;;6127996;23;20420;-79
2023/09/13 17:46:05;;;;;;;5.70;5.30;;;22.70;99.90;;;;;;6108189;23;20393;-80
2023/09/13 17:48:41;;;;;;;5.27;4.87;;;22.60;99.90;;;;;;6130432;23;20413;-78
2023/09/13 17:51:35;;;;;;;5.43;4.97;;;22.60;99.90;;;;;;6132660;23;20479;-80
2023/09/13 17:54:11;;;;;;;5.47;5.07;;;22.60;99.90;;;;;;6129784;23;20440;-78
2023/09/13 17:56:48;;;;;;;5.77;5.27;;;22.50;99.90;;;;;;6127898;23;20511;-77
2023/09/13 17:59:18;;;;;;;5.63;5.23;;;22.50;99.90;;;;;;6128003;23;20500;-76
2023/09/13 18:02:04;;;;;;;5.80;5.23;;;22.40;99.90;;;;;;6127283;23;20749;-79
2023/09/13 18:04:53;;;;;;;5.40;5.00;;;22.40;99.90;;;;;;6127801;23;20504;-78
2023/09/13 18:07:41;;;;;;;8.60;7.80;;;22.30;99.90;;;;;;6132193;23;20420;-79
2023/09/13 18:10:14;;;;;;;6.47;5.90;;;22.40;99.90;;;;;;6134419;23;20412;-79
2023/09/13 18:12:54;;;;;;;5.80;5.40;;;22.30;99.90;;;;;;6135769;23;20476;-78